Time;durP1;ratioP1;P1;durP2;ratioP2;P2;SDS_P1;SDS_P2;PMS_P1;PMS_P2;Temp;Humidity;BMP_temperature;BMP_pressure;BME280_temperature;BME280_humidity;BME280_pressure;Samples;Min_cycle;Max_cycle;Signal;HPM_P1;HPM_P2
2022/06/08 04:10:22;;;;;;;6.53;5.85;;;;;;;20.42;87.79;99849.91;5614247;31;77316;-60
2022/06/08 04:13:26;;;;;;;7.78;5.87;;;;;;;20.42;87.79;99849.91;5603869;31;33145;-60
2022/06/08 04:16:29;;;;;;;7.68;5.32;;;;;;;20.08;89.43;99858.94;5603750;31;34485;-60
2022/06/08 04:19:32;;;;;;;6.43;5.07;;;;;;;20.15;88.21;99861.81;5599313;31;33760;-60
2022/06/08 04:22:34;;;;;;;6.20;5.15;;;;;;;20.16;86.75;99856.03;5583596;31;34089;-60
2022/06/08 04:25:39;;;;;;;6.07;5.30;;;;;;;20.19;87.15;99844.41;5583959;31;33723;-59
2022/06/08 04:28:42;;;;;;;7.47;5.95;;;;;;;20.19;88.05;99852.56;5579823;31;33312;-59
2022/06/08 04:31:45;;;;;;;6.03;5.15;;;;;;;20.28;86.05;99854.28;5579469;32;34412;-60
2022/06/08 04:34:49;;;;;;;5.68;5.18;;;;;;;20.30;85.96;99854.75;5583444;32;34439;-59
2022/06/08 04:37:53;;;;;;;8.10;5.45;;;;;;;20.16;85.65;99849.78;5582205;31;34125;-59
2022/06/08 04:40:56;;;;;;;7.72;5.35;;;;;;;20.25;88.67;99861.25;5579499;32;34249;-59
2022/06/08 04:43:59;;;;;;;7.03;5.03;;;;;;;20.34;87.92;99856.37;5564113;32;34353;-59
2022/06/08 04:47:02;;;;;;;5.45;4.57;;;;;;;20.35;85.04;99860.66;5563998;32;34422;-59
2022/06/08 04:50:07;;;;;;;6.68;5.03;;;;;;;20.32;86.10;99842.31;5563894;32;33374;-59
2022/06/08 04:53:09;;;;;;;5.50;4.90;;;;;;;20.38;85.59;99838.16;5582562;32;33582;-60
2022/06/08 04:56:13;;;;;;;5.82;4.60;;;;;;;20.38;86.02;99842.81;5583150;31;33260;-59
2022/06/08 04:59:15;;;;;;;7.15;5.10;;;;;;;20.29;83.68;99832.16;5583334;31;34324;-59
2022/06/08 05:05:41;;;;;;;5.70;4.62;;;;;;;20.32;83.89;99838.81;5563367;32;33748;-59
2022/06/08 05:08:44;;;;;;;5.85;4.82;;;;;;;20.36;84.91;99854.09;5563607;32;33392;-59
2022/06/08 05:11:54;;;;;;;6.53;4.55;;;;;;;20.44;83.38;99846.06;5563725;32;34244;-59
2022/06/08 05:14:57;;;;;;;6.20;5.00;;;;;;;20.57;83.39;99859.19;5580775;31;33256;-59
2022/06/08 05:18:00;;;;;;;5.15;4.65;;;;;;;20.70;90.93;99861.75;5580117;32;33398;-60
2022/06/08 05:21:03;;;;;;;6.85;4.70;;;;;;;20.84;82.21;99862.78;5555886;31;33376;-60
2022/06/08 05:24:06;;;;;;;7.10;4.45;;;;;;;20.84;82.98;99862.00;5550712;32;33650;-60
2022/06/08 05:27:09;;;;;;;6.28;4.78;;;;;;;21.03;83.63;99861.19;5552657;32;33391;-60
2022/06/08 05:30:12;;;;;;;7.05;4.75;;;;;;;21.18;84.26;99864.94;5550386;32;33637;-60
2022/06/08 05:33:16;;;;;;;8.85;5.32;;;;;;;21.15;80.95;99862.94;5550524;32;34494;-60
2022/06/08 05:36:19;;;;;;;7.53;5.20;;;;;;;21.21;85.34;99862.25;5550317;32;33216;-58
2022/06/08 05:39:22;;;;;;;6.28;4.78;;;;;;;21.29;82.54;99854.97;5558422;32;33446;-59
2022/06/08 05:42:24;;;;;;;6.28;5.68;;;;;;;21.36;82.23;99860.59;5564759;32;33654;-59
2022/06/08 05:45:30;;;;;;;9.88;6.45;;;;;;;21.44;81.23;99850.56;5569813;32;34401;-60
2022/06/08 05:48:32;;;;;;;8.50;5.65;;;;;;;21.43;79.74;99855.25;5569011;32;33793;-59
2022/06/08 05:51:35;;;;;;;7.10;5.55;;;;;;;21.34;78.19;99868.31;5568844;32;33347;-58
2022/06/08 05:54:38;;;;;;;6.95;5.47;;;;;;;21.51;82.00;99867.03;5553598;32;33487;-60
2022/06/08 05:57:41;;;;;;;7.00;5.43;;;;;;;21.40;79.09;99888.69;5559006;32;34323;-59
2022/06/08 06:00:44;;;;;;;8.43;5.82;;;;;;;21.42;82.35;99897.28;5553077;32;33341;-60
2022/06/08 06:03:47;;;;;;;9.40;6.47;;;;;;;21.57;79.16;99899.09;5559729;32;33225;-59
2022/06/08 06:06:51;;;;;;;6.97;5.05;;;;;;;21.72;78.24;99891.94;5561662;31;33420;-59
2022/06/08 06:09:54;;;;;;;10.77;5.18;;;;;;;21.88;80.17;99899.94;5560012;31;34346;-59
2022/06/08 06:13:00;;;;;;;8.13;5.18;;;;;;;21.85;77.86;99903.41;5551418;31;33477;-58
2022/06/08 06:16:04;;;;;;;15.68;7.55;;;;;;;21.87;77.68;99903.81;5566194;32;33271;-60
2022/06/08 06:19:07;;;;;;;10.38;6.05;;;;;;;22.08;77.06;99892.41;5565183;32;33691;-59
2022/06/08 06:22:10;;;;;;;5.90;5.10;;;;;;;22.04;75.70;99895.09;5555524;31;34598;-59
2022/06/08 06:25:13;;;;;;;8.20;5.55;;;;;;;22.27;75.36;99886.06;5561374;32;33341;-58
2022/06/08 06:28:16;;;;;;;6.35;5.37;;;;;;;22.35;79.74;99886.94;5550998;32;33732;-60
2022/06/08 06:31:26;;;;;;;6.15;5.30;;;;;;;22.31;74.88;99880.66;5548743;32;34255;-59
2022/06/08 06:34:29;;;;;;;7.78;5.03;;;;;;;22.15;75.89;99881.66;5561386;32;33360;-60
2022/06/08 06:37:31;;;;;;;6.47;5.00;;;;;;;22.26;75.09;99873.59;5565854;31;34154;-60
2022/06/08 06:40:37;;;;;;;6.10;4.80;;;;;;;22.45;74.49;99878.06;5556439;31;33741;-60
2022/06/08 06:43:40;;;;;;;8.30;5.28;;;;;;;22.53;73.28;99882.47;5553769;31;34308;-60
2022/06/08 06:46:44;;;;;;;6.00;5.43;;;;;;;22.58;71.63;99879.41;5558462;32;34358;-60
2022/06/08 06:49:49;;;;;;;9.55;5.55;;;;;;;22.71;74.50;99877.19;5554796;32;33589;-60
2022/06/08 06:52:52;;;;;;;5.80;4.75;;;;;;;22.78;74.09;99876.50;5564552;32;34390;-60
2022/06/08 06:55:55;;;;;;;6.35;4.20;;;;;;;22.82;72.24;99871.87;5567871;31;33249;-60
2022/06/08 06:58:59;;;;;;;10.02;5.28;;;;;;;22.90;72.80;99857.09;5563268;31;34537;-60
2022/06/08 07:02:02;;;;;;;7.78;5.30;;;;;;;22.94;71.56;99853.25;5562362;31;33958;-60
2022/06/08 07:05:07;;;;;;;9.50;5.15;;;;;;;22.96;71.02;99844.69;5550213;32;34318;-60
2022/06/08 07:08:09;;;;;;;8.10;5.75;;;;;;;23.11;70.07;99849.13;5557562;32;34323;-59
2022/06/08 07:14:34;;;;;;;6.60;5.75;;;;;;;22.95;69.69;99841.19;5561350;32;34351;-60
2022/06/08 07:17:37;;;;;;;8.80;5.40;;;;;;;22.97;69.62;99829.84;5552644;32;33002;-60
2022/06/08 07:20:40;;;;;;;6.37;5.18;;;;;;;22.99;70.00;99833.00;5560646;32;33354;-60
2022/06/08 07:23:42;;;;;;;6.78;5.60;;;;;;;23.08;71.99;99830.75;5564021;31;34320;-60
2022/06/08 07:26:44;;;;;;;6.90;5.95;;;;;;;23.02;69.95;99834.22;5559101;32;33563;-60
2022/06/08 07:29:47;;;;;;;7.43;5.60;;;;;;;22.87;70.50;99830.53;5564289;32;33765;-58
2022/06/08 07:32:50;;;;;;;7.43;6.12;;;;;;;22.84;71.67;99834.78;5548994;32;33730;-60
2022/06/08 07:35:53;;;;;;;14.35;6.07;;;;;;;22.94;70.72;99825.94;5548972;32;34337;-60
2022/06/08 07:38:56;;;;;;;8.25;5.40;;;;;;;23.15;70.64;99832.75;5556911;32;34260;-58
2022/06/08 07:41:59;;;;;;;7.93;5.85;;;;;;;23.31;72.90;99827.81;5561973;32;33662;-56
2022/06/08 07:45:02;;;;;;;6.05;5.40;;;;;;;23.36;70.50;99827.44;5548173;32;33615;-60
2022/06/08 07:51:26;;;;;;;8.80;5.70;;;;;;;23.51;70.83;99822.88;5557792;32;33545;-60
2022/06/08 07:54:30;;;;;;;6.15;5.55;;;;;;;23.59;70.31;99823.69;5565942;32;33689;-60
2022/06/08 07:57:33;;;;;;;8.90;5.57;;;;;;;23.63;70.82;99817.06;5558163;32;34188;-60
2022/06/08 08:00:35;;;;;;;7.05;6.00;;;;;;;23.67;70.49;99817.87;5567518;32;33596;-61
2022/06/08 08:03:38;;;;;;;7.22;5.80;;;;;;;23.50;69.62;99815.81;5564376;32;33625;-60
2022/06/08 08:06:42;;;;;;;11.20;5.57;;;;;;;23.44;69.94;99817.31;5559843;32;35128;-60
2022/06/08 08:09:44;;;;;;;12.27;6.25;;;;;;;23.50;68.91;99820.50;5549631;32;33830;-58
2022/06/08 08:12:47;;;;;;;10.98;5.45;;;;;;;23.53;70.12;99819.75;5557165;32;33780;-60
2022/06/08 08:15:51;;;;;;;6.72;5.82;;;;;;;23.71;71.41;99831.63;5552833;32;33672;-60
2022/06/08 08:18:54;;;;;;;9.18;5.90;;;;;;;23.68;69.53;99826.91;5548371;32;34356;-59
2022/06/08 08:21:57;;;;;;;8.05;6.18;;;;;;;23.67;70.13;99823.34;5547058;32;33701;-59
2022/06/08 08:24:59;;;;;;;8.38;5.93;;;;;;;23.68;68.23;99827.69;5547595;32;33414;-60
2022/06/08 08:28:03;;;;;;;10.68;6.70;;;;;;;23.69;69.44;99817.53;5552297;32;34439;-59
2022/06/08 08:31:05;;;;;;;9.60;5.70;;;;;;;23.64;68.30;99813.19;5555304;32;34331;-59
2022/06/08 08:34:10;;;;;;;7.18;6.15;;;;;;;23.62;70.50;99817.44;5556968;32;33727;-60
2022/06/08 08:37:12;;;;;;;9.32;6.78;;;;;;;23.70;69.68;99818.31;5552964;32;33789;-60
2022/06/08 08:40:44;;;;;;;9.10;6.22;;;;;;;23.74;68.05;99816.38;5554016;32;34410;-59
2022/06/08 08:43:46;;;;;;;7.28;5.60;;;;;;;23.79;69.06;99814.06;5556861;32;34240;-60
2022/06/08 08:47:18;;;;;;;9.68;6.53;;;;;;;23.88;69.70;99817.25;5556813;32;33787;-60
2022/06/08 08:50:43;;;;;;;7.53;6.03;;;;;;;23.99;69.06;99813.75;5543244;32;34354;-59
2022/06/08 08:54:04;;;;;;;8.80;5.70;;;;;;;24.05;69.22;99813.00;5557429;32;34270;-60
2022/06/08 08:57:19;;;;;;;8.90;6.25;;;;;;;24.26;69.28;99814.25;5564116;32;33692;-60
2022/06/08 09:00:52;;;;;;;8.63;6.12;;;;;;;24.34;67.65;99802.94;5567373;32;33279;-60
2022/06/08 09:04:14;;;;;;;12.85;6.68;;;;;;;24.24;67.46;99797.41;5546072;32;34261;-60
2022/06/08 09:07:21;;;;;;;8.65;6.82;;;;;;;24.24;68.14;99803.69;5550881;32;33681;-60
2022/06/08 09:10:25;;;;;;;9.52;6.30;;;;;;;24.31;68.63;99809.19;5555090;32;33818;-60
2022/06/08 09:13:54;;;;;;;10.25;6.90;;;;;;;24.36;67.88;99810.75;5559465;32;34215;-60
2022/06/08 09:17:16;;;;;;;11.57;7.55;;;;;;;24.35;67.23;99812.72;5545856;32;33964;-60
2022/06/08 09:20:36;;;;;;;8.00;6.70;;;;;;;24.25;67.59;99799.78;5554979;32;33747;-59
2022/06/08 09:23:42;;;;;;;9.95;7.55;;;;;;;24.35;67.28;99806.47;5557900;32;34566;-60
2022/06/08 09:26:47;;;;;;;11.80;6.68;;;;;;;24.27;67.25;99797.44;5559251;32;34369;-60
2022/06/08 09:30:18;;;;;;;10.98;7.55;;;;;;;24.25;67.86;99799.00;5561630;32;32260;-60
2022/06/08 09:33:27;;;;;;;11.80;6.78;;;;;;;24.33;66.99;99801.34;5555133;32;33483;-60
2022/06/08 09:36:30;;;;;;;9.45;6.82;;;;;;;24.35;69.45;99795.50;5557419;31;33540;-59
2022/06/08 09:39:35;;;;;;;9.90;6.00;;;;;;;24.45;66.27;99788.50;5557528;32;33659;-60
2022/06/08 09:42:57;;;;;;;7.40;6.03;;;;;;;24.52;67.20;99780.31;5552438;32;33708;-59
2022/06/08 09:46:15;;;;;;;8.82;5.45;;;;;;;24.68;66.67;99758.78;5563133;32;34025;-60
2022/06/08 09:53:15;;;;;;;8.77;6.40;;;;;;;24.94;65.02;99756.84;5554065;32;33744;-60
2022/06/08 09:56:49;;;;;;;9.60;6.90;;;;;;;24.99;64.98;99750.94;5556895;32;33686;-60
2022/06/08 10:00:00;;;;;;;9.30;6.57;;;;;;;25.05;63.12;99736.44;5561557;32;33772;-60
2022/06/08 10:03:20;;;;;;;9.93;6.10;;;;;;;25.13;64.04;99728.22;5553879;32;33748;-60
2022/06/08 10:06:40;;;;;;;9.17;6.27;;;;;;;25.14;66.28;99721.59;5565829;32;33870;-60
2022/06/08 10:10:12;;;;;;;7.70;5.80;;;;;;;25.28;64.81;99716.84;5555068;32;34311;-60
2022/06/08 10:13:23;;;;;;;12.60;7.20;;;;;;;25.41;63.36;99719.16;5560482;32;34439;-61
2022/06/08 10:16:30;;;;;;;7.25;5.90;;;;;;;25.44;61.61;99710.94;5550239;32;33664;-61
2022/06/08 10:19:39;;;;;;;7.07;5.90;;;;;;;25.52;61.25;99706.97;5568545;32;33670;-60
2022/06/08 10:22:49;;;;;;;11.73;5.95;;;;;;;25.56;62.12;99701.47;5564511;32;33670;-60
2022/06/08 10:25:58;;;;;;;7.75;5.07;;;;;;;25.73;58.79;99708.09;5569600;32;34372;-59
2022/06/08 10:29:27;;;;;;;13.57;4.78;;;;;;;25.85;55.37;99701.38;5567755;32;33714;-59
2022/06/08 10:32:41;;;;;;;6.12;4.53;;;;;;;25.93;50.46;99698.19;5565959;32;33992;-60
2022/06/08 10:35:48;;;;;;;9.93;4.80;;;;;;;25.99;50.57;99690.31;5554284;32;33740;-58
2022/06/08 10:38:50;;;;;;;9.23;4.90;;;;;;;26.10;50.92;99693.00;5553075;32;33917;-60
2022/06/08 10:45:42;;;;;;;8.10;4.57;;;;;;;26.14;50.38;99696.50;5563632;32;33750;-60
2022/06/08 10:48:48;;;;;;;7.87;4.45;;;;;;;26.13;50.63;99692.19;5568817;32;33934;-60
2022/06/08 10:52:19;;;;;;;4.78;3.97;;;;;;;26.23;51.05;99688.59;5568413;32;33726;-59
2022/06/08 10:55:21;;;;;;;4.60;4.05;;;;;;;26.33;48.25;99670.47;5568110;32;33747;-59
2022/06/08 10:58:25;;;;;;;6.78;3.97;;;;;;;26.38;50.14;99679.03;5566448;32;33672;-60
2022/06/08 11:01:35;;;;;;;5.45;4.00;;;;;;;26.38;49.50;99672.78;5568952;32;33650;-59
2022/06/08 11:05:09;;;;;;;5.78;3.90;;;;;;;26.46;47.95;99663.31;5568229;32;33748;-61
2022/06/08 11:08:23;;;;;;;6.50;3.70;;;;;;;26.43;46.85;99653.13;5555718;32;33634;-60
2022/06/08 11:11:44;;;;;;;4.33;3.60;;;;;;;26.38;48.76;99654.31;5562272;32;34367;-60
2022/06/08 11:14:56;;;;;;;18.65;4.37;;;;;;;26.42;45.58;99662.53;5564897;32;33781;-60
2022/06/08 11:18:10;;;;;;;5.97;4.20;;;;;;;26.47;48.71;99665.66;5559369;32;33711;-59
2022/06/08 11:21:13;;;;;;;9.55;3.60;;;;;;;26.46;45.47;99663.31;5565342;32;34498;-59
2022/06/08 11:24:29;;;;;;;6.45;3.65;;;;;;;26.44;45.11;99655.44;5556268;32;33792;-60
2022/06/08 11:27:34;;;;;;;6.95;3.70;;;;;;;26.61;47.02;99655.72;5560808;32;33309;-59
2022/06/08 11:30:37;;;;;;;6.85;3.47;;;;;;;26.76;45.83;99659.16;5549187;32;33605;-60
2022/06/08 11:33:51;;;;;;;4.15;3.42;;;;;;;26.83;45.97;99646.09;5548367;32;34342;-60
2022/06/08 11:37:13;;;;;;;4.95;3.70;;;;;;;26.83;45.45;99648.84;5548382;32;34378;-60
2022/06/08 11:40:29;;;;;;;10.20;4.10;;;;;;;26.88;44.50;99631.88;5559067;32;34245;-59
2022/06/08 11:43:36;;;;;;;5.15;3.92;;;;;;;26.96;44.81;99635.37;5558651;32;33676;-60
2022/06/08 11:46:53;;;;;;;6.75;3.58;;;;;;;26.97;45.92;99636.91;5548379;32;33657;-61
2022/06/08 11:50:01;;;;;;;10.05;4.00;;;;;;;26.90;45.69;99634.25;5556941;32;34449;-60
2022/06/08 11:53:06;;;;;;;8.30;3.70;;;;;;;26.83;46.10;99637.84;5564101;31;33259;-59
2022/06/08 11:56:21;;;;;;;10.80;3.90;;;;;;;26.84;45.52;99631.16;5558610;32;33295;-60
2022/06/08 11:59:24;;;;;;;7.33;3.67;;;;;;;26.90;46.08;99634.25;5567529;32;33424;-58
2022/06/08 12:02:38;;;;;;;7.55;4.32;;;;;;;26.96;46.29;99626.34;5565616;32;34321;-60
2022/06/08 12:05:40;;;;;;;6.72;4.32;;;;;;;26.96;45.96;99631.84;5567267;32;33599;-60
2022/06/08 12:08:47;;;;;;;6.43;4.28;;;;;;;26.90;45.43;99631.50;5567900;32;33980;-60
2022/06/08 12:11:58;;;;;;;7.03;4.12;;;;;;;26.88;46.09;99631.88;5553215;32;33678;-61
2022/06/08 12:15:24;;;;;;;5.30;4.45;;;;;;;26.88;46.20;99633.88;5548272;32;33507;-61
2022/06/08 12:18:26;;;;;;;5.28;4.45;;;;;;;26.78;47.19;99626.50;5547728;32;33815;-60
2022/06/08 12:21:36;;;;;;;5.75;4.12;;;;;;;26.70;47.18;99623.84;5562414;32;34318;-59
2022/06/08 12:24:38;;;;;;;6.53;5.07;;;;;;;26.69;47.14;99608.53;5564572;32;33883;-59
2022/06/08 12:27:53;;;;;;;6.82;4.62;;;;;;;26.64;46.62;99616.44;5558252;32;33732;-60
2022/06/08 12:30:58;;;;;;;6.25;5.30;;;;;;;26.62;46.98;99610.56;5566123;32;34310;-60
2022/06/08 12:34:38;;;;;;;7.22;4.85;;;;;;;26.55;48.23;99605.91;5557030;32;34278;-60
2022/06/08 12:37:54;;;;;;;12.18;5.10;;;;;;;26.86;47.77;99592.25;5566286;32;33664;-60
2022/06/08 12:40:59;;;;;;;6.45;5.65;;;;;;;26.92;49.29;99582.34;5560227;32;33788;-60
2022/06/08 12:44:13;;;;;;;6.80;5.10;;;;;;;26.96;49.55;99585.84;5560221;32;34303;-59
2022/06/08 12:47:18;;;;;;;11.23;5.68;;;;;;;27.06;53.20;99592.44;5570254;32;34399;-61
2022/06/08 12:50:24;;;;;;;7.65;5.93;;;;;;;27.05;56.58;99605.41;5570005;32;33656;-60
2022/06/08 12:53:26;;;;;;;9.25;5.85;;;;;;;26.99;56.84;99606.25;5570049;32;33656;-60
2022/06/08 12:56:29;;;;;;;6.57;5.87;;;;;;;26.90;57.43;99609.50;5551968;32;34322;-61
2022/06/08 12:59:36;;;;;;;8.32;5.68;;;;;;;26.90;57.73;99610.28;5550449;32;33705;-59
2022/06/08 13:02:40;;;;;;;10.85;6.10;;;;;;;26.84;58.43;99617.41;5552407;32;33822;-61
2022/06/08 13:05:43;;;;;;;7.25;5.78;;;;;;;26.66;58.86;99608.56;5567535;32;34380;-60
2022/06/08 13:08:48;;;;;;;9.25;6.18;;;;;;;26.61;59.38;99615.28;5570180;32;34422;-59
2022/06/08 13:11:56;;;;;;;7.93;5.95;;;;;;;26.64;60.63;99617.22;5566791;32;33690;-59
2022/06/08 13:14:59;;;;;;;9.75;6.00;;;;;;;26.59;58.73;99617.66;5551046;32;33693;-59
2022/06/08 13:18:02;;;;;;;7.47;6.60;;;;;;;26.50;60.41;99619.31;5550384;32;33796;-60
2022/06/08 13:21:07;;;;;;;7.78;6.25;;;;;;;26.52;58.87;99611.44;5565957;32;33758;-59
2022/06/08 13:24:10;;;;;;;10.20;6.60;;;;;;;26.54;58.42;99609.84;5568728;32;33914;-60
2022/06/08 13:27:15;;;;;;;7.12;6.12;;;;;;;26.62;58.46;99599.56;5569924;32;34446;-59
2022/06/08 13:30:21;;;;;;;7.93;6.18;;;;;;;26.63;59.17;99612.91;5557707;32;34241;-60
2022/06/08 13:36:51;;;;;;;;;;;;;;;26.56;59.58;99612.22;5555910;32;34347;-60
2022/06/08 13:39:55;;;;;;;7.15;6.00;;;;;;;26.57;60.18;99614.53;5553031;32;35208;-60
2022/06/08 13:42:58;;;;;;;9.43;5.60;;;;;;;26.63;59.36;99614.88;5551725;32;33257;-60
2022/06/08 13:46:00;;;;;;;6.72;5.85;;;;;;;26.65;59.19;99607.00;5550240;32;33362;-59
2022/06/08 13:49:03;;;;;;;7.82;6.37;;;;;;;26.62;58.35;99613.31;5560622;32;33627;-60
2022/06/08 13:52:06;;;;;;;10.25;7.53;;;;;;;26.45;59.37;99618.53;5569670;32;33797;-60
2022/06/08 13:55:16;;;;;;;9.65;8.60;;;;;;;26.28;64.32;99624.19;5569611;32;33742;-60
2022/06/08 13:58:21;;;;;;;8.95;8.05;;;;;;;25.94;68.54;99633.84;5568477;32;33808;-60
2022/06/08 14:01:29;;;;;;;9.82;8.35;;;;;;;25.69;70.86;99649.66;5569557;32;34725;-61
2022/06/08 14:04:33;;;;;;;10.00;8.32;;;;;;;25.57;70.21;99647.38;5561742;32;33224;-60
2022/06/08 14:14:20;;;;;;;9.20;8.30;;;;;;;25.17;66.50;99669.47;5569586;32;33864;-60
2022/06/08 14:17:23;;;;;;;13.27;8.77;;;;;;;25.11;67.78;99678.47;5569335;32;34342;-58
2022/06/08 14:20:33;;;;;;;9.65;8.13;;;;;;;25.12;69.59;99683.56;5568649;32;33640;-60
2022/06/08 14:23:37;;;;;;;10.43;8.52;;;;;;;25.10;67.18;99685.91;5550147;32;33740;-60
2022/06/08 14:26:39;;;;;;;9.50;8.50;;;;;;;24.99;68.59;99685.91;5563627;32;34579;-60
2022/06/08 14:29:42;;;;;;;9.77;8.77;;;;;;;25.01;68.80;99693.75;5569122;32;34087;-59
2022/06/08 14:32:49;;;;;;;14.32;10.43;;;;;;;24.94;71.22;99696.53;5565302;32;33765;-60
2022/06/08 14:35:54;;;;;;;11.20;10.10;;;;;;;24.76;79.65;99708.28;5563718;32;33641;-59
2022/06/08 14:39:20;;;;;;;12.52;10.20;;;;;;;24.62;77.60;99711.03;5557945;32;33952;-60
2022/06/08 14:42:22;;;;;;;14.05;11.30;;;;;;;24.37;78.14;99698.06;5566956;32;34354;-60
2022/06/08 14:45:27;;;;;;;20.98;11.35;;;;;;;24.22;80.91;99684.75;5568273;32;34212;-59
2022/06/08 14:48:39;;;;;;;13.43;11.97;;;;;;;24.06;83.48;99688.63;5566775;32;34520;-59
2022/06/08 14:51:42;;;;;;;15.48;12.13;;;;;;;23.98;86.19;99689.00;5563042;32;34445;-60
2022/06/08 14:54:45;;;;;;;13.10;11.80;;;;;;;23.92;88.69;99688.59;5568648;32;34446;-60
2022/06/08 14:57:48;;;;;;;13.80;9.15;;;;;;;23.79;89.14;99677.22;5569406;32;34329;-60
2022/06/08 15:00:54;;;;;;;8.38;6.80;;;;;;;23.77;79.88;99665.09;5569500;32;34331;-60
2022/06/08 15:03:57;;;;;;;8.75;7.93;;;;;;;23.68;82.64;99649.81;5569492;32;33717;-60
2022/06/08 15:06:59;;;;;;;10.43;7.80;;;;;;;23.67;82.13;99634.56;5569445;32;34425;-60
2022/06/08 15:10:05;;;;;;;7.80;7.00;;;;;;;23.64;80.99;99632.59;5569328;32;33760;-60
2022/06/08 15:13:15;;;;;;;9.15;7.72;;;;;;;23.53;80.07;99630.97;5569369;32;33730;-60
2022/06/08 15:16:17;;;;;;;8.82;8.02;;;;;;;23.53;76.34;99634.50;5569481;32;33672;-60
2022/06/08 15:19:29;;;;;;;8.75;7.62;;;;;;;23.34;78.36;99640.28;5569353;32;33671;-60
2022/06/08 15:22:37;;;;;;;12.68;9.10;;;;;;;23.18;83.51;99648.81;5569563;32;33759;-60
2022/06/08 15:25:46;;;;;;;11.10;8.43;;;;;;;23.12;84.19;99645.66;5569131;32;34497;-60
2022/06/08 15:28:49;;;;;;;11.23;9.18;;;;;;;23.13;84.75;99660.09;5569284;32;33665;-60
2022/06/08 15:31:53;;;;;;;10.75;8.80;;;;;;;23.21;85.82;99664.44;5568908;32;33853;-60
2022/06/08 15:35:03;;;;;;;9.02;7.85;;;;;;;23.08;83.85;99674.94;5569270;32;33757;-59
2022/06/08 15:38:10;;;;;;;12.75;10.25;;;;;;;23.03;85.34;99685.44;5568966;32;33696;-60
2022/06/08 15:41:12;;;;;;;11.73;10.52;;;;;;;22.90;85.21;99668.53;5569352;32;33740;-60
2022/06/08 15:44:15;;;;;;;10.98;9.77;;;;;;;22.90;86.25;99674.00;5569098;32;33615;-60
2022/06/08 15:47:22;;;;;;;14.32;10.82;;;;;;;22.87;82.71;99677.47;5569225;32;33852;-60
2022/06/08 15:50:32;;;;;;;11.40;10.30;;;;;;;22.94;86.02;99666.63;5569056;32;33718;-60
2022/06/08 15:53:39;;;;;;;13.32;11.18;;;;;;;22.94;85.12;99664.66;5568815;32;34416;-60
2022/06/08 15:56:48;;;;;;;11.12;10.07;;;;;;;22.83;88.57;99663.03;5568629;32;33639;-60
2022/06/08 16:00:00;;;;;;;11.50;10.40;;;;;;;22.82;87.88;99656.78;5568800;32;33580;-60
2022/06/08 16:03:03;;;;;;;12.10;9.93;;;;;;;22.80;88.04;99656.34;5568969;32;33667;-60
2022/06/08 16:06:06;;;;;;;10.50;9.43;;;;;;;23.00;82.82;99662.38;5568110;32;33872;-60
